Gulf Titan — WDA5598 — position and weather

sailwx.info

Track history (hours):
 
Tides and Currents Weather Stations Pressure Air Temp Water Temp Dewpoint Dewpoint Depression Visibility Wind Speed Wind Dir Waves Ship Positions

Gulf Titan

Owner: WESTERN TOWBOAT CO, SEATTTLE, WA. More information available from US FCC via Universal Licensing System and Coast Guard Vessel Documentation Center.

Last reported at 2018-Feb-17 16:52 UTC. Time now 2018-Feb-18 05:31 UTC.
Position N 54°41' W 130°47'.

Type: Tow > 200 m length. MMSI: 366821830.

Date/timePositionNaut miles runAvg speedWind from/ knotsBaromVisibWave heightAir tempDewpointWater temp
2018-Feb-17 16:52N 54°41' W 130°47'3 7.4
2018-Feb-17 16:29N 54°38' W 130°44'3 6.8
2018-Feb-17 16:00N 54°35' W 130°44'3 5.8
2018-Feb-17 15:28N 54°32' W 130°43'2 5.1
2018-Feb-17 15:00N 54°30' W 130°42'2 4.7
2018-Feb-17 14:30N 54°28' W 130°40'3 5.8
2018-Feb-17 14:00N 54°25' W 130°39'4 8.1
2018-Feb-17 13:30N 54°21' W 130°37'5 9.1
2018-Feb-17 13:00N 54°17' W 130°34'5 9.4
2018-Feb-17 12:30N 54°13' W 130°29'4 8.9
2018-Feb-17 12:00N 54°09' W 130°26'5 9.3
2018-Feb-17 11:30N 54°06' W 130°20'5 9.5
2018-Feb-17 11:00N 54°02' W 130°15'5 9.3
2018-Feb-17 10:30N 53°58' W 130°12'4 8.7
2018-Feb-17 10:00N 53°54' W 130°08'5 9.2
2018-Feb-17 09:30N 53°51' W 130°02'5 9.3
2018-Feb-17 08:59N 53°48' W 129°57'97 8.7
2018-Feb-16 21:53N 52°26' W 128°28'4 9.8
2018-Feb-16 21:30N 52°23' W 128°31'5 9.4
2018-Feb-16 20:57N 52°18' W 128°30'25 7.8
2018-Feb-16 17:48N 52°09' W 127°52'310.3
2018-Feb-16 17:30N 52°06' W 127°54'5 9.1
2018-Feb-16 17:00N 52°02' W 127°55'510.5
2018-Feb-16 16:30N 51°57' W 127°56'510.4
2018-Feb-16 16:00N 51°51' W 127°56'510.5
2018-Feb-16 15:30N 51°46' W 127°56'510.2
2018-Feb-16 15:00N 51°41' W 127°54'510.4
2018-Feb-16 14:30N 51°36' W 127°53'510.3
2018-Feb-16 14:00N 51°31' W 127°52'610.0
2018-Feb-16 13:26N 51°25' W 127°52'12 9.7
2018-Feb-16 12:10N 51°13' W 127°52'210.0
2018-Feb-16 11:58N 51°11' W 127°51'5 9.9
2018-Feb-16 11:30N 51°07' W 127°47'510.0
2018-Feb-16 11:00N 51°04' W 127°41'5 9.8
2018-Feb-16 10:30N 51°00' W 127°36'5 9.7
2018-Feb-16 10:00N 50°58' W 127°30'5 9.3
2018-Feb-16 09:30N 50°55' W 127°24'5 9.6
2018-Feb-16 09:00N 50°51' W 127°18'510.0
2018-Feb-16 08:30N 50°48' W 127°13'7 9.8
2018-Feb-16 07:46N 50°44' W 127°03'3 9.7
2018-Feb-16 07:29N 50°43' W 126°59'5 9.5
2018-Feb-16 07:00N 50°41' W 126°53'5 9.2
2018-Feb-16 06:30N 50°38' W 126°47'510.4
2018-Feb-16 05:59N 50°34' W 126°41'4911.3
2018-Feb-16 01:38N 50°20' W 125°27'1 9.6
2018-Feb-16 01:31N 50°20' W 125°25'610.6
2018-Feb-16 00:57N 50°14' W 125°23'410.0
2018-Feb-16 00:30N 50°10' W 125°22'3 6.0
2018-Feb-16 00:01N 50°07' W 125°20'3 5.3
2018-Feb-15 23:31N 50°05' W 125°17'3 5.3
2018-Feb-15 23:00N 50°03' W 125°14'2 4.8
2018-Feb-15 22:31N 50°01' W 125°13'3 4.9
2018-Feb-15 21:59N 49°59' W 125°11'3 6.6
2018-Feb-15 21:31N 49°57' W 125°07'4 7.8
2018-Feb-15 21:00N 49°54' W 125°03'4 8.4
2018-Feb-15 20:30N 49°51' W 124°58'4 8.8
2018-Feb-15 20:01N 49°48' W 124°53'4 8.7
2018-Feb-15 19:31N 49°45' W 124°48'3 6.1
2018-Feb-15 19:01N 49°43' W 124°45'4 8.3
2018-Feb-15 18:30N 49°40' W 124°41'4 8.2
2018-Feb-15 18:00N 49°37' W 124°37'4 8.1
2018-Feb-15 17:29N 49°34' W 124°32'4 8.4
2018-Feb-15 17:00N 49°31' W 124°27'8 8.8
2018-Feb-15 16:02N 49°26' W 124°17'19 9.4
2018-Feb-15 14:00N 49°16' W 123°52'610.4
2018-Feb-15 13:27N 49°13' W 123°44'510.7
2018-Feb-15 13:00N 49°11' W 123°38'510.4
2018-Feb-15 12:30N 49°08' W 123°31'510.4
2018-Feb-15 11:59N 49°06' W 123°24'510.3
2018-Feb-15 11:30N 49°03' W 123°18'510.5
2018-Feb-15 11:00N 48°59' W 123°12'510.5
2018-Feb-15 10:30N 48°56' W 123°06'710.3
2018-Feb-15 09:52N 48°51' W 122°58'510.1
2018-Feb-15 09:24N 48°48' W 122°53'510.4
2018-Feb-15 08:58N 48°46' W 122°47'511.2
2018-Feb-15 08:30N 48°42' W 122°43'5 9.7
2018-Feb-15 08:00N 48°37' W 122°45'510.1
2018-Feb-15 07:30N 48°32' W 122°45'5 9.3
2018-Feb-15 07:00N 48°27' W 122°44'4 8.6
2018-Feb-15 06:30N 48°23' W 122°45'6 8.9
2018-Feb-15 05:50N 48°17' W 122°47'2011.3
2018-Feb-15 04:04N 47°59' W 122°35'113.1
2018-Feb-15 04:01N 47°58' W 122°34'611.3
2018-Feb-15 03:30N 47°54' W 122°28'511.0
2018-Feb-15 03:00N 47°49' W 122°27'510.4
2018-Feb-15 02:31N 47°44' W 122°26'510.3
2018-Feb-15 02:00N 47°39' W 122°26'4 8.6
2018-Feb-15 01:31N 47°36' W 122°22'2 4.0
2018-Feb-15 01:00N 47°34' W 122°21'1 1.5
2018-Feb-15 00:30N 47°33' W 122°21'0 0.5
2018-Feb-15 00:01N 47°33' W 122°21'3 5.3
2018-Feb-14 23:30N 47°36' W 122°22'4 8.4
2018-Feb-14 23:01N 47°39' W 122°26'2 3.7
2018-Feb-14 22:30N 47°40' W 122°24'2 3.1
2018-Feb-14 22:01N 47°39' W 122°22'0 0.0
2018-Feb-14 21:30N 47°39' W 122°22'0 0.0
2018-Feb-14 21:01N 47°39' W 122°22'0 0.0
2018-Feb-14 20:31N 47°39' W 122°22'0 0.1
2018-Feb-14 20:01N 47°39' W 122°22'0 0.1
2018-Feb-14 19:30N 47°39' W 122°22'0 0.1
2018-Feb-14 19:00N 47°39' W 122°22'0 0.1
2018-Feb-14 18:31N 47°39' W 122°22'0 0.0
2018-Feb-14 18:00N 47°39' W 122°22'0 0.0
2018-Feb-14 17:31N 47°39' W 122°22'0 0.1
2018-Feb-14 17:00N 47°39' W 122°22'0 0.1
2018-Feb-14 16:31N 47°39' W 122°22'0 0.0
2018-Feb-14 16:00N 47°39' W 122°22'  
2018-Feb-11 17:40N 47°39' W 122°22'1 3.7
2018-Feb-11 17:31N 47°40' W 122°23'1 2.6
2018-Feb-11 17:01N 47°40' W 122°24'3 5.6
2018-Feb-11 16:31N 47°37' W 122°24'5 9.2
2018-Feb-11 16:01N 47°33' W 122°21'0 0.2
2018-Feb-11 15:30N 47°33' W 122°21'2 4.8
2018-Feb-11 15:01N 47°35' W 122°22'3 5.2
2018-Feb-11 14:31N 47°37' W 122°25'4 7.9
2018-Feb-11 14:00N 47°40' W 122°28'3 5.3
2018-Feb-11 13:30N 47°43' W 122°28'3 5.3
2018-Feb-11 13:01N 47°46' W 122°27'3 5.2
2018-Feb-11 12:30N 47°48' W 122°28'2 4.6
2018-Feb-11 12:01N 47°50' W 122°29'3 5.3
2018-Feb-11 11:31N 47°53' W 122°30'2 4.7
2018-Feb-11 11:01N 47°55' W 122°30'2 4.4
2018-Feb-11 10:31N 47°56' W 122°33'3 4.9
2018-Feb-11 09:51N 47°59' W 122°36'4 5.6
2018-Feb-11 09:07N 48°03' W 122°39'5 6.8
2018-Feb-11 08:24N 48°07' W 122°42'611.9
2018-Feb-11 07:56N 48°12' W 122°47'410.7
2018-Feb-11 07:30N 48°16' W 122°48'5 9.9
2018-Feb-11 07:01N 48°21' W 122°46'5 9.8
2018-Feb-11 06:30N 48°26' W 122°45'5 9.4
2018-Feb-11 06:01N 48°30' W 122°45'5 9.6
2018-Feb-11 05:31N 48°35' W 122°45'5 9.8
2018-Feb-11 05:00N 48°40' W 122°44'510.0
2018-Feb-11 04:30N 48°44' W 122°47'610.5
2018-Feb-11 03:55N 48°48' W 122°55'510.6
2018-Feb-11 03:27N 48°51' W 123°01'510.6
2018-Feb-11 02:58N 48°54' W 123°07'510.7
2018-Feb-11 02:31N 48°57' W 123°13'610.8
2018-Feb-11 01:57N 49°01' W 123°20'510.4
2018-Feb-11 01:30N 49°04' W 123°25'1410.2
2018-Feb-11 00:06N 49°13' W 123°42'210.6
2018-Feb-10 23:53N 49°14' W 123°45'2210.3
2018-Feb-10 21:45N 49°24' W 124°15'410.2
2018-Feb-10 21:21N 49°27' W 124°20'510.2
2018-Feb-10 20:54N 49°30' W 124°26'410.5
2018-Feb-10 20:31N 49°32' W 124°30'510.3
2018-Feb-10 19:59N 49°36' W 124°36'510.2
2018-Feb-10 19:30N 49°40' W 124°41'510.6
2018-Feb-10 19:00N 49°43' W 124°47'510.6
2018-Feb-10 18:31N 49°47' W 124°53'510.2
2018-Feb-10 18:00N 49°51' W 124°59'510.0
2018-Feb-10 17:30N 49°54' W 125°04'510.2
2018-Feb-10 16:58N 49°58' W 125°10'4 9.4
2018-Feb-10 16:30N 50°02' W 125°13'5 9.2
2018-Feb-10 16:00N 50°06' W 125°17'4 7.9
2018-Feb-10 15:31N 50°09' W 125°21'5 9.1
2018-Feb-10 15:00N 50°13' W 125°23'5 9.3
2018-Feb-10 14:30N 50°18' W 125°25'4 7.6
2018-Feb-10 13:55N 50°21' W 125°30'10 8.1
2018-Feb-10 12:37N 50°22' W 125°46'25 9.0
2018-Feb-10 09:50N 50°30' W 126°24'4 9.8
2018-Feb-10 09:27N 50°30' W 126°30'610.0
2018-Feb-10 08:53N 50°31' W 126°38'4 9.5
2018-Feb-10 08:25N 50°35' W 126°42'410.1
2018-Feb-10 07:58N 50°38' W 126°48'710.6
2018-Feb-10 07:21N 50°42' W 126°56'410.2
2018-Feb-10 07:00N 50°43' W 127°01'510.1
2018-Feb-10 06:28N 50°46' W 127°09'5 9.8
2018-Feb-10 06:00N 50°49' W 127°14'510.2
2018-Feb-10 05:30N 50°52' W 127°20'510.7
2018-Feb-10 05:00N 50°56' W 127°27'510.1
2018-Feb-10 04:30N 50°59' W 127°33'5 9.9
2018-Feb-10 04:00N 51°02' W 127°38'5 9.8
2018-Feb-10 03:30N 51°05' W 127°44'510.1
2018-Feb-10 03:00N 51°09' W 127°50'510.1
2018-Feb-10 02:29N 51°14' W 127°52'510.1
2018-Feb-10 02:00N 51°19' W 127°54'510.1
2018-Feb-10 01:30N 51°24' W 127°52'611.0
2018-Feb-10 01:00N 51°29' W 127°51'511.0
2018-Feb-10 00:30N 51°35' W 127°53'510.7
2018-Feb-10 00:00N 51°40' W 127°54'510.6
2018-Feb-09 23:30N 51°45' W 127°55'510.8
2018-Feb-09 23:00N 51°51' W 127°55'310.6
2018-Feb-09 22:45N 51°53' W 127°56'170 8.4
2018-Feb-09 02:30N 54°15' W 130°32'  
Track history (hours):
 
Tides and Currents Weather Stations Pressure Air Temp Water Temp Dewpoint Dewpoint Depression Visibility Wind Speed Wind Dir Waves Ship Positions

Gulf Titan

Owner: WESTERN TOWBOAT CO, SEATTTLE, WA. More information available from US FCC via Universal Licensing System and Coast Guard Vessel Documentation Center.

Last reported at 2018-Feb-17 16:52 UTC. Time now 2018-Feb-18 05:31 UTC.
Position N 54°41' W 130°47'.

Type: Tow > 200 m length. MMSI: 366821830.

Date/timePositionNaut miles runAvg speedWind from/ knotsBaromVisibWave heightAir tempDewpointWater temp
2018-Feb-17 16:52N 54°41' W 130°47'3 7.4
2018-Feb-17 16:29N 54°38' W 130°44'3 6.8
2018-Feb-17 16:00N 54°35' W 130°44'3 5.8
2018-Feb-17 15:28N 54°32' W 130°43'2 5.1
2018-Feb-17 15:00N 54°30' W 130°42'2 4.7
2018-Feb-17 14:30N 54°28' W 130°40'3 5.8
2018-Feb-17 14:00N 54°25' W 130°39'4 8.1
2018-Feb-17 13:30N 54°21' W 130°37'5 9.1
2018-Feb-17 13:00N 54°17' W 130°34'5 9.4
2018-Feb-17 12:30N 54°13' W 130°29'4 8.9
2018-Feb-17 12:00N 54°09' W 130°26'5 9.3
2018-Feb-17 11:30N 54°06' W 130°20'5 9.5
2018-Feb-17 11:00N 54°02' W 130°15'5 9.3
2018-Feb-17 10:30N 53°58' W 130°12'4 8.7
2018-Feb-17 10:00N 53°54' W 130°08'5 9.2
2018-Feb-17 09:30N 53°51' W 130°02'5 9.3
2018-Feb-17 08:59N 53°48' W 129°57'97 8.7
2018-Feb-16 21:53N 52°26' W 128°28'4 9.8
2018-Feb-16 21:30N 52°23' W 128°31'5 9.4
2018-Feb-16 20:57N 52°18' W 128°30'25 7.8
2018-Feb-16 17:48N 52°09' W 127°52'310.3
2018-Feb-16 17:30N 52°06' W 127°54'5 9.1
2018-Feb-16 17:00N 52°02' W 127°55'510.5
2018-Feb-16 16:30N 51°57' W 127°56'510.4
2018-Feb-16 16:00N 51°51' W 127°56'510.5
2018-Feb-16 15:30N 51°46' W 127°56'510.2
2018-Feb-16 15:00N 51°41' W 127°54'510.4
2018-Feb-16 14:30N 51°36' W 127°53'510.3
2018-Feb-16 14:00N 51°31' W 127°52'610.0
2018-Feb-16 13:26N 51°25' W 127°52'12 9.7
2018-Feb-16 12:10N 51°13' W 127°52'210.0
2018-Feb-16 11:58N 51°11' W 127°51'5 9.9
2018-Feb-16 11:30N 51°07' W 127°47'510.0
2018-Feb-16 11:00N 51°04' W 127°41'5 9.8
2018-Feb-16 10:30N 51°00' W 127°36'5 9.7
2018-Feb-16 10:00N 50°58' W 127°30'5 9.3
2018-Feb-16 09:30N 50°55' W 127°24'5 9.6
2018-Feb-16 09:00N 50°51' W 127°18'510.0
2018-Feb-16 08:30N 50°48' W 127°13'7 9.8
2018-Feb-16 07:46N 50°44' W 127°03'3 9.7
2018-Feb-16 07:29N 50°43' W 126°59'5 9.5
2018-Feb-16 07:00N 50°41' W 126°53'5 9.2
2018-Feb-16 06:30N 50°38' W 126°47'510.4
2018-Feb-16 05:59N 50°34' W 126°41'4911.3
2018-Feb-16 01:38N 50°20' W 125°27'1 9.6
2018-Feb-16 01:31N 50°20' W 125°25'610.6
2018-Feb-16 00:57N 50°14' W 125°23'410.0
2018-Feb-16 00:30N 50°10' W 125°22'3 6.0
2018-Feb-16 00:01N 50°07' W 125°20'3 5.3
2018-Feb-15 23:31N 50°05' W 125°17'3 5.3
2018-Feb-15 23:00N 50°03' W 125°14'2 4.8
2018-Feb-15 22:31N 50°01' W 125°13'3 4.9
2018-Feb-15 21:59N 49°59' W 125°11'3 6.6
2018-Feb-15 21:31N 49°57' W 125°07'4 7.8
2018-Feb-15 21:00N 49°54' W 125°03'4 8.4
2018-Feb-15 20:30N 49°51' W 124°58'4 8.8
2018-Feb-15 20:01N 49°48' W 124°53'4 8.7
2018-Feb-15 19:31N 49°45' W 124°48'3 6.1
2018-Feb-15 19:01N 49°43' W 124°45'4 8.3
2018-Feb-15 18:30N 49°40' W 124°41'4 8.2
2018-Feb-15 18:00N 49°37' W 124°37'4 8.1
2018-Feb-15 17:29N 49°34' W 124°32'4 8.4
2018-Feb-15 17:00N 49°31' W 124°27'8 8.8
2018-Feb-15 16:02N 49°26' W 124°17'19 9.4
2018-Feb-15 14:00N 49°16' W 123°52'610.4
2018-Feb-15 13:27N 49°13' W 123°44'510.7
2018-Feb-15 13:00N 49°11' W 123°38'510.4
2018-Feb-15 12:30N 49°08' W 123°31'510.4
2018-Feb-15 11:59N 49°06' W 123°24'510.3
2018-Feb-15 11:30N 49°03' W 123°18'510.5
2018-Feb-15 11:00N 48°59' W 123°12'510.5
2018-Feb-15 10:30N 48°56' W 123°06'710.3
2018-Feb-15 09:52N 48°51' W 122°58'510.1
2018-Feb-15 09:24N 48°48' W 122°53'510.4
2018-Feb-15 08:58N 48°46' W 122°47'511.2
2018-Feb-15 08:30N 48°42' W 122°43'5 9.7
2018-Feb-15 08:00N 48°37' W 122°45'510.1
2018-Feb-15 07:30N 48°32' W 122°45'5 9.3
2018-Feb-15 07:00N 48°27' W 122°44'4 8.6
2018-Feb-15 06:30N 48°23' W 122°45'6 8.9
2018-Feb-15 05:50N 48°17' W 122°47'2011.3
2018-Feb-15 04:04N 47°59' W 122°35'113.1
2018-Feb-15 04:01N 47°58' W 122°34'611.3
2018-Feb-15 03:30N 47°54' W 122°28'511.0
2018-Feb-15 03:00N 47°49' W 122°27'510.4
2018-Feb-15 02:31N 47°44' W 122°26'510.3
2018-Feb-15 02:00N 47°39' W 122°26'4 8.6
2018-Feb-15 01:31N 47°36' W 122°22'2 4.0
2018-Feb-15 01:00N 47°34' W 122°21'1 1.5
2018-Feb-15 00:30N 47°33' W 122°21'0 0.5
2018-Feb-15 00:01N 47°33' W 122°21'3 5.3
2018-Feb-14 23:30N 47°36' W 122°22'4 8.4
2018-Feb-14 23:01N 47°39' W 122°26'2 3.7
2018-Feb-14 22:30N 47°40' W 122°24'2 3.1
2018-Feb-14 22:01N 47°39' W 122°22'0 0.0
2018-Feb-14 21:30N 47°39' W 122°22'0 0.0
2018-Feb-14 21:01N 47°39' W 122°22'0 0.0
2018-Feb-14 20:31N 47°39' W 122°22'0 0.1
2018-Feb-14 20:01N 47°39' W 122°22'0 0.1
2018-Feb-14 19:30N 47°39' W 122°22'0 0.1
2018-Feb-14 19:00N 47°39' W 122°22'0 0.1
2018-Feb-14 18:31N 47°39' W 122°22'0 0.0
2018-Feb-14 18:00N 47°39' W 122°22'0 0.0
2018-Feb-14 17:31N 47°39' W 122°22'0 0.1
2018-Feb-14 17:00N 47°39' W 122°22'0 0.1
2018-Feb-14 16:31N 47°39' W 122°22'0 0.0
2018-Feb-14 16:00N 47°39' W 122°22'  
2018-Feb-11 17:40N 47°39' W 122°22'1 3.7
2018-Feb-11 17:31N 47°40' W 122°23'1 2.6
2018-Feb-11 17:01N 47°40' W 122°24'3 5.6
2018-Feb-11 16:31N 47°37' W 122°24'5 9.2
2018-Feb-11 16:01N 47°33' W 122°21'0 0.2
2018-Feb-11 15:30N 47°33' W 122°21'2 4.8
2018-Feb-11 15:01N 47°35' W 122°22'3 5.2
2018-Feb-11 14:31N 47°37' W 122°25'4 7.9
2018-Feb-11 14:00N 47°40' W 122°28'3 5.3
2018-Feb-11 13:30N 47°43' W 122°28'3 5.3
2018-Feb-11 13:01N 47°46' W 122°27'3 5.2
2018-Feb-11 12:30N 47°48' W 122°28'2 4.6
2018-Feb-11 12:01N 47°50' W 122°29'3 5.3
2018-Feb-11 11:31N 47°53' W 122°30'2 4.7
2018-Feb-11 11:01N 47°55' W 122°30'2 4.4
2018-Feb-11 10:31N 47°56' W 122°33'3 4.9
2018-Feb-11 09:51N 47°59' W 122°36'4 5.6
2018-Feb-11 09:07N 48°03' W 122°39'5 6.8
2018-Feb-11 08:24N 48°07' W 122°42'611.9
2018-Feb-11 07:56N 48°12' W 122°47'410.7
2018-Feb-11 07:30N 48°16' W 122°48'5 9.9
2018-Feb-11 07:01N 48°21' W 122°46'5 9.8
2018-Feb-11 06:30N 48°26' W 122°45'5 9.4
2018-Feb-11 06:01N 48°30' W 122°45'5 9.6
2018-Feb-11 05:31N 48°35' W 122°45'5 9.8
2018-Feb-11 05:00N 48°40' W 122°44'510.0
2018-Feb-11 04:30N 48°44' W 122°47'610.5
2018-Feb-11 03:55N 48°48' W 122°55'510.6
2018-Feb-11 03:27N 48°51' W 123°01'510.6
2018-Feb-11 02:58N 48°54' W 123°07'510.7
2018-Feb-11 02:31N 48°57' W 123°13'610.8
2018-Feb-11 01:57N 49°01' W 123°20'510.4
2018-Feb-11 01:30N 49°04' W 123°25'1410.2
2018-Feb-11 00:06N 49°13' W 123°42'210.6
2018-Feb-10 23:53N 49°14' W 123°45'2210.3
2018-Feb-10 21:45N 49°24' W 124°15'410.2
2018-Feb-10 21:21N 49°27' W 124°20'510.2
2018-Feb-10 20:54N 49°30' W 124°26'410.5
2018-Feb-10 20:31N 49°32' W 124°30'510.3
2018-Feb-10 19:59N 49°36' W 124°36'510.2
2018-Feb-10 19:30N 49°40' W 124°41'510.6
2018-Feb-10 19:00N 49°43' W 124°47'510.6
2018-Feb-10 18:31N 49°47' W 124°53'510.2
2018-Feb-10 18:00N 49°51' W 124°59'510.0
2018-Feb-10 17:30N 49°54' W 125°04'510.2
2018-Feb-10 16:58N 49°58' W 125°10'4 9.4
2018-Feb-10 16:30N 50°02' W 125°13'5 9.2
2018-Feb-10 16:00N 50°06' W 125°17'4 7.9
2018-Feb-10 15:31N 50°09' W 125°21'5 9.1
2018-Feb-10 15:00N 50°13' W 125°23'5 9.3
2018-Feb-10 14:30N 50°18' W 125°25'4 7.6
2018-Feb-10 13:55N 50°21' W 125°30'10 8.1
2018-Feb-10 12:37N 50°22' W 125°46'25 9.0
2018-Feb-10 09:50N 50°30' W 126°24'4 9.8
2018-Feb-10 09:27N 50°30' W 126°30'610.0
2018-Feb-10 08:53N 50°31' W 126°38'4 9.5
2018-Feb-10 08:25N 50°35' W 126°42'410.1
2018-Feb-10 07:58N 50°38' W 126°48'710.6
2018-Feb-10 07:21N 50°42' W 126°56'410.2
2018-Feb-10 07:00N 50°43' W 127°01'510.1
2018-Feb-10 06:28N 50°46' W 127°09'5 9.8
2018-Feb-10 06:00N 50°49' W 127°14'510.2
2018-Feb-10 05:30N 50°52' W 127°20'510.7
2018-Feb-10 05:00N 50°56' W 127°27'510.1
2018-Feb-10 04:30N 50°59' W 127°33'5 9.9
2018-Feb-10 04:00N 51°02' W 127°38'5 9.8
2018-Feb-10 03:30N 51°05' W 127°44'510.1
2018-Feb-10 03:00N 51°09' W 127°50'510.1
2018-Feb-10 02:29N 51°14' W 127°52'510.1
2018-Feb-10 02:00N 51°19' W 127°54'510.1
2018-Feb-10 01:30N 51°24' W 127°52'611.0
2018-Feb-10 01:00N 51°29' W 127°51'511.0
2018-Feb-10 00:30N 51°35' W 127°53'510.7
2018-Feb-10 00:00N 51°40' W 127°54'510.6
2018-Feb-09 23:30N 51°45' W 127°55'510.8
2018-Feb-09 23:00N 51°51' W 127°55'310.6
2018-Feb-09 22:45N 51°53' W 127°56'170 8.4
2018-Feb-09 02:30N 54°15' W 130°32'  

Dump ship's entire track history